SBCJ/CKS METAR and TAF weather

Enter ICAO airport designator
Station Type Date Time Source
SBCJ METAR 2019/08/17 21:30 UTC NOAA

SBCJ 172130Z 07002KT CAVOK 25/12 Q1016


Station Type Date Time Source
SBCJ Decoded METAR 2019/08/17 21:30 UTC NOAA

Station name not available
Aug 17, 2019 - 05:30 PM EDT / 2019.08.17 2130 UTC
Wind: from the ENE (070 degrees) at 2 MPH (2 KT):0
Visibility: greater than 7 mile(s):0
Temperature: 77 F (25 C)
Dew Point: 53 F (12 C)
Relative Humidity: 44%
Pressure (altimeter): 30.00 in. Hg (1016 hPa)
ob: SBCJ 172130Z 07002KT CAVOK 25/12 Q1016
cycle: 21

Station Type Date Time Source
SBCJ TAF 2019/08/18 12:18 UTC NOAA

TAF TAF SBCJ 180900Z 1812/1824 10005KT CAVOK TX31/1817Z TN23/1824Z
BECMG 1814/1816 12010KT
RMK PGU

Example: see airport list